RKNY

Yangyang International Airport

Sokcho / Gangneung, South Korea
METAR RKNY 190200Z 34005KT 300V010 CAVOK 12/M02 Q1021 NOSIG
Observed Flight Rules
Nov-19 @ 02:00 UTC (an hour ago) Visual Flight Rules
Wind Visibility Clouds
340° at 5 knots 10,000+ meters
  • Clear skies
Temperatures Readings
Current 12°C / 54°F
Dewpoint -2°C / 28°F
Humidity 38%
Altimeter 30.15" Hg
Pressure 1021 hPa
Elevation 74
METAR RKNY 190200Z 34005KT 300V010 CAVOK 12/M02 Q1021 NOSIG
Observed Flight Rules
Nov-19 @ 02:00 UTC
(an hour ago)
VFR
Wind Visibility
340° at 5 knots 10,000+ meters
Clouds
  • Clear skies
Temperature Dewpoint
12°C / 54°F -2°C / 28°F
Humidity Altimeter Pressure
38% 30.15" Hg 1021 hPa